createdAt,value
2019-05-28T00:02:43.793Z,14.90
2019-05-28T00:06:48.012Z,14.90
2019-05-28T00:10:52.231Z,14.90
2019-05-28T00:14:56.449Z,14.80
2019-05-28T00:19:00.676Z,14.80
2019-05-28T00:23:04.958Z,14.80
2019-05-28T00:27:09.183Z,14.80
2019-05-28T00:31:13.420Z,14.80
2019-05-28T00:35:18.143Z,14.80
2019-05-28T00:39:22.396Z,14.70
2019-05-28T00:43:26.597Z,14.70
2019-05-28T00:47:30.845Z,14.70
2019-05-28T00:51:35.620Z,14.70
2019-05-28T00:55:40.436Z,14.70
2019-05-28T00:59:45.679Z,14.70
2019-05-28T01:03:49.884Z,14.60
2019-05-28T01:07:54.105Z,14.60
2019-05-28T01:11:58.314Z,14.60
2019-05-28T01:16:02.592Z,14.50
2019-05-28T01:20:07.745Z,14.50
2019-05-28T01:24:11.935Z,14.40
2019-05-28T01:28:16.171Z,14.40
2019-05-28T01:32:20.401Z,14.30
2019-05-28T01:36:24.616Z,14.20
2019-05-28T01:40:28.829Z,14.10
2019-05-28T01:44:33.028Z,14.10
2019-05-28T01:48:37.272Z,14.00
2019-05-28T01:52:41.488Z,13.90
2019-05-28T01:56:45.719Z,13.80
2019-05-28T02:00:49.939Z,13.70
2019-05-28T02:04:54.296Z,13.60
2019-05-28T02:08:58.492Z,13.50
2019-05-28T02:13:02.703Z,13.40
2019-05-28T02:17:06.914Z,13.30
2019-05-28T02:21:11.153Z,13.20
2019-05-28T02:25:15.362Z,13.10
2019-05-28T02:29:19.587Z,13.00
2019-05-28T02:33:23.806Z,12.90
2019-05-28T02:37:28.030Z,12.80
2019-05-28T02:41:32.448Z,12.60
2019-05-28T02:45:36.655Z,12.60
2019-05-28T02:49:40.890Z,12.50
2019-05-28T02:53:45.108Z,12.40
2019-05-28T02:57:50.155Z,12.40
2019-05-28T03:01:57.574Z,12.30
2019-05-28T03:06:01.811Z,12.20
2019-05-28T03:10:06.623Z,12.00
2019-05-28T03:14:10.852Z,12.00
2019-05-28T03:18:17.191Z,11.90
2019-05-28T03:22:22.620Z,11.90
2019-05-28T03:26:26.852Z,11.80
2019-05-28T03:30:31.056Z,11.70
2019-05-28T03:34:35.274Z,11.70
2019-05-28T03:38:40.360Z,11.60
2019-05-28T03:42:44.583Z,11.60
2019-05-28T03:46:48.827Z,11.50
2019-05-28T03:50:53.023Z,11.50
2019-05-28T03:54:57.245Z,11.50
2019-05-28T03:59:01.460Z,11.40
2019-05-28T04:03:05.883Z,11.40
2019-05-28T04:07:10.105Z,11.40
2019-05-28T04:11:14.290Z,11.40
2019-05-28T04:15:18.523Z,11.40
2019-05-28T04:19:22.761Z,11.50
2019-05-28T04:23:26.967Z,11.50
2019-05-28T04:27:31.197Z,11.60
2019-05-28T04:31:35.490Z,11.70
2019-05-28T04:35:39.788Z,11.70
2019-05-28T04:39:44.089Z,11.80
2019-05-28T04:43:48.315Z,11.90
2019-05-28T04:47:52.585Z,12.00
2019-05-28T04:51:56.812Z,12.00
2019-05-28T04:56:01.160Z,12.10
2019-05-28T05:00:06.427Z,12.30
2019-05-28T05:04:10.664Z,12.40
2019-05-28T05:08:14.923Z,12.50
2019-05-28T05:12:19.630Z,12.70
2019-05-28T05:16:23.847Z,12.80
2019-05-28T05:20:28.069Z,13.00
2019-05-28T05:24:32.305Z,13.00
2019-05-28T05:28:36.537Z,13.10
2019-05-28T05:32:40.763Z,13.20
2019-05-28T05:36:44.994Z,13.30
2019-05-28T05:40:49.446Z,13.30
2019-05-28T05:44:53.700Z,13.40
2019-05-28T05:48:57.946Z,13.40
2019-05-28T05:53:02.192Z,13.50
2019-05-28T05:57:06.383Z,13.50
2019-05-28T06:01:10.633Z,13.60
2019-05-28T06:05:14.955Z,13.60
2019-05-28T06:09:19.192Z,13.70
2019-05-28T06:13:23.399Z,13.80
2019-05-28T06:17:27.607Z,13.80
2019-05-28T06:21:31.828Z,13.80
2019-05-28T06:25:36.127Z,13.90
2019-05-28T06:29:40.368Z,13.90
2019-05-28T06:33:56.300Z,13.90
2019-05-28T06:37:50.444Z,14.00
2019-05-28T06:41:54.663Z,14.00
2019-05-28T06:45:58.895Z,14.00
2019-05-28T06:50:03.460Z,14.00
2019-05-28T06:54:11.493Z,14.00
2019-05-28T06:58:13.542Z,14.10
2019-05-28T07:02:17.832Z,14.20
2019-05-28T07:06:22.056Z,14.30
2019-05-28T07:10:26.278Z,14.40
2019-05-28T07:14:30.521Z,14.60
2019-05-28T07:18:34.711Z,14.60
2019-05-28T07:22:38.934Z,14.70
2019-05-28T07:26:43.144Z,14.80
2019-05-28T07:30:47.387Z,14.90
2019-05-28T07:34:51.615Z,15.00
2019-05-28T07:38:55.832Z,15.10
2019-05-28T07:43:00.020Z,15.20
2019-05-28T07:47:04.306Z,15.40
2019-05-28T07:51:08.612Z,15.50
2019-05-28T07:55:12.962Z,15.70
2019-05-28T07:59:17.192Z,15.80
2019-05-28T08:03:21.401Z,15.90
2019-05-28T08:07:25.642Z,15.90
2019-05-28T08:11:29.865Z,16.10
2019-05-28T08:15:34.119Z,16.20
2019-05-28T08:19:38.359Z,16.40
2019-05-28T08:23:42.627Z,16.50
2019-05-28T08:27:46.864Z,16.70
2019-05-28T08:31:51.075Z,16.80
2019-05-28T08:35:55.283Z,16.90
2019-05-28T08:39:59.518Z,16.90
2019-05-28T08:44:03.720Z,16.90
2019-05-28T08:48:07.953Z,17.00
2019-05-28T08:52:12.265Z,17.00
2019-05-28T08:56:16.591Z,17.10
2019-05-28T09:00:41.027Z,17.20
2019-05-28T09:04:45.403Z,17.30
2019-05-28T09:08:49.680Z,17.40
2019-05-28T09:12:53.917Z,17.50
2019-05-28T09:16:58.201Z,17.50
2019-05-28T09:21:02.483Z,17.50
2019-05-28T09:25:07.055Z,17.60
2019-05-28T09:29:11.266Z,17.60
2019-05-28T09:33:16.140Z,17.60
2019-05-28T09:37:20.359Z,17.70
2019-05-28T09:41:24.571Z,17.80
2019-05-28T09:45:28.797Z,18.00
2019-05-28T09:49:33.020Z,18.10
2019-05-28T09:53:37.236Z,18.20
2019-05-28T09:57:47.541Z,18.30
2019-05-28T10:01:47.515Z,18.30
2019-05-28T10:06:02.016Z,18.50
2019-05-28T10:09:57.591Z,18.50
2019-05-28T10:14:01.820Z,18.70
2019-05-28T10:18:06.035Z,18.70
2019-05-28T10:22:10.267Z,18.90
2019-05-28T10:26:14.591Z,19.00
2019-05-28T10:30:19.224Z,19.20
2019-05-28T10:34:23.436Z,19.40
2019-05-28T10:38:27.663Z,19.60
2019-05-28T10:42:31.874Z,19.70
2019-05-28T10:46:36.099Z,19.60
2019-05-28T10:50:40.340Z,19.60
2019-05-28T10:54:44.618Z,19.50
2019-05-28T10:58:48.874Z,19.50
2019-05-28T11:02:53.094Z,19.40
2019-05-28T11:06:57.312Z,19.40
2019-05-28T11:11:01.604Z,19.40
2019-05-28T11:15:07.212Z,19.40
2019-05-28T11:19:11.446Z,19.40
2019-05-28T11:23:16.409Z,19.40
2019-05-28T11:27:23.867Z,19.30
2019-05-28T11:31:26.516Z,19.20
2019-05-28T11:35:30.826Z,19.20
2019-05-28T11:39:35.092Z,19.10
2019-05-28T11:43:39.326Z,19.10
2019-05-28T11:47:43.581Z,19.10
2019-05-28T11:51:47.809Z,19.10
2019-05-28T11:55:52.201Z,19.20
2019-05-28T11:59:59.439Z,19.20
2019-05-28T12:04:03.786Z,19.20
2019-05-28T12:08:08.031Z,19.20
2019-05-28T12:12:12.395Z,19.30
2019-05-28T12:16:16.701Z,19.30
2019-05-28T12:20:22.153Z,19.40
2019-05-28T12:24:28.488Z,19.40
2019-05-28T12:28:37.996Z,19.40
2019-05-28T12:32:38.260Z,19.50
2019-05-28T12:36:42.504Z,19.50
2019-05-28T12:40:48.444Z,19.40
2019-05-28T12:45:08.421Z,19.30
2019-05-28T12:48:58.531Z,19.30
2019-05-28T12:53:02.770Z,19.20
2019-05-28T12:57:06.983Z,19.10
2019-05-28T13:01:11.311Z,19.00
2019-05-28T13:05:17.606Z,18.90
2019-05-28T13:09:21.814Z,18.90
2019-05-28T13:13:26.082Z,18.90
2019-05-28T13:17:30.295Z,18.90
2019-05-28T13:21:35.175Z,18.80
2019-05-28T13:25:39.565Z,18.70
2019-05-28T13:29:43.815Z,18.60
2019-05-28T13:33:48.047Z,18.50
2019-05-28T13:37:52.429Z,18.40
2019-05-28T13:41:56.729Z,18.40
2019-05-28T13:46:00.936Z,18.30
2019-05-28T13:50:05.409Z,18.30
2019-05-28T13:54:09.620Z,18.20
2019-05-28T13:58:13.855Z,18.10
2019-05-28T14:02:18.218Z,18.00
2019-05-28T14:06:22.548Z,18.00
2019-05-28T14:10:26.790Z,17.90
2019-05-28T14:14:31.127Z,17.90
2019-05-28T14:18:45.141Z,17.80
2019-05-28T14:22:49.392Z,17.80
2019-05-28T14:26:53.596Z,17.80
2019-05-28T14:31:00.292Z,17.70
2019-05-28T14:35:03.847Z,17.70
2019-05-28T14:39:09.099Z,17.60
2019-05-28T14:43:13.344Z,17.60
2019-05-28T14:47:17.573Z,17.50
2019-05-28T14:51:22.399Z,17.50
2019-05-28T14:55:26.653Z,17.40
2019-05-28T14:59:30.992Z,17.40
2019-05-28T15:03:35.207Z,17.40
2019-05-28T15:07:39.466Z,17.30
2019-05-28T15:11:43.667Z,17.30
2019-05-28T15:15:47.896Z,17.30
2019-05-28T15:19:52.256Z,17.40
2019-05-28T15:23:56.492Z,17.40
2019-05-28T15:28:00.743Z,17.40
2019-05-28T15:32:04.979Z,17.40
2019-05-28T15:36:09.388Z,17.40
2019-05-28T15:40:13.951Z,17.40
2019-05-28T15:44:18.300Z,17.40
2019-05-28T15:48:22.981Z,17.40
2019-05-28T15:52:27.242Z,17.40
2019-05-28T15:56:34.687Z,17.40
2019-05-28T16:00:39.003Z,17.40
2019-05-28T16:04:43.358Z,17.40
2019-05-28T16:08:47.613Z,17.30
2019-05-28T16:12:51.841Z,17.30
2019-05-28T16:16:56.079Z,17.30
2019-05-28T16:21:00.329Z,17.20
2019-05-28T16:25:04.836Z,17.20
2019-05-28T16:29:09.140Z,17.10
2019-05-28T16:33:13.391Z,17.00
2019-05-28T16:37:17.646Z,17.00
2019-05-28T16:41:22.004Z,16.90
2019-05-28T16:45:26.681Z,16.80
2019-05-28T16:49:30.930Z,16.80
2019-05-28T16:53:35.149Z,16.80
2019-05-28T16:57:39.448Z,16.70
2019-05-28T17:01:43.719Z,16.70
2019-05-28T17:05:47.944Z,16.60
2019-05-28T17:09:52.186Z,16.50
2019-05-28T17:13:56.431Z,16.40
2019-05-28T17:18:00.663Z,16.40
2019-05-28T17:22:04.903Z,16.30
2019-05-28T17:26:09.266Z,16.20
2019-05-28T17:30:19.363Z,16.00
2019-05-28T17:34:19.456Z,15.90
2019-05-28T17:38:23.691Z,15.80
2019-05-28T17:42:27.929Z,15.70
2019-05-28T17:46:32.173Z,15.70
2019-05-28T17:50:36.415Z,15.60
2019-05-28T17:54:40.697Z,15.50
2019-05-28T17:58:44.947Z,15.50
2019-05-28T18:02:49.196Z,15.50
2019-05-28T18:06:53.423Z,15.40
2019-05-28T18:11:04.453Z,15.30
2019-05-28T18:15:03.617Z,15.30
2019-05-28T18:19:07.887Z,15.20
2019-05-28T18:23:12.240Z,15.10
2019-05-28T18:27:16.548Z,15.10
2019-05-28T18:31:20.795Z,15.00
2019-05-28T18:35:25.005Z,15.00
2019-05-28T18:39:29.297Z,14.90
2019-05-28T18:43:33.599Z,14.80
2019-05-28T18:47:37.998Z,14.70
2019-05-28T18:51:42.299Z,14.70
2019-05-28T18:55:46.553Z,14.60
2019-05-28T18:59:50.844Z,14.60
2019-05-28T19:03:55.117Z,14.50
2019-05-28T19:07:59.359Z,14.40
2019-05-28T19:12:03.595Z,14.40
2019-05-28T19:16:07.831Z,14.30
2019-05-28T19:20:12.441Z,14.30
2019-05-28T19:24:16.803Z,14.20
2019-05-28T19:28:21.056Z,14.10
2019-05-28T19:32:25.311Z,14.10
2019-05-28T19:36:29.622Z,14.00
2019-05-28T19:40:43.774Z,13.90
2019-05-28T19:44:48.101Z,13.90
2019-05-28T19:48:52.383Z,13.80
2019-05-28T19:52:57.455Z,13.70
2019-05-28T19:57:01.873Z,13.60
2019-05-28T20:01:06.204Z,13.60
2019-05-28T20:05:11.046Z,13.50
2019-05-28T20:09:15.281Z,13.50
2019-05-28T20:13:19.571Z,13.50
2019-05-28T20:17:24.590Z,13.40
2019-05-28T20:21:28.997Z,13.40
2019-05-28T20:25:33.212Z,13.30
2019-05-28T20:29:37.449Z,13.30
2019-05-28T20:33:41.730Z,13.20
2019-05-28T20:37:46.027Z,13.20
2019-05-28T20:41:50.251Z,13.10
2019-05-28T20:45:54.493Z,13.10
2019-05-28T20:49:58.734Z,13.00
2019-05-28T20:54:02.993Z,13.00
2019-05-28T20:58:07.311Z,13.00
2019-05-28T21:02:11.990Z,12.90
2019-05-28T21:06:16.184Z,12.90
2019-05-28T21:10:20.464Z,12.80
2019-05-28T21:14:24.700Z,12.70
2019-05-28T21:18:28.935Z,12.70
2019-05-28T21:22:33.247Z,12.60
2019-05-28T21:26:37.635Z,12.50
2019-05-28T21:30:41.999Z,12.50
2019-05-28T21:34:46.272Z,12.40
2019-05-28T21:38:51.198Z,12.40
2019-05-28T21:43:01.288Z,12.30
2019-05-28T21:47:02.638Z,12.30
2019-05-28T21:51:06.876Z,12.30
2019-05-28T21:55:11.457Z,12.20
2019-05-28T21:59:15.679Z,12.10
2019-05-28T22:03:19.903Z,12.10
2019-05-28T22:07:24.330Z,12.00
2019-05-28T22:11:28.564Z,11.90
2019-05-28T22:15:32.853Z,11.90
2019-05-28T22:19:37.535Z,11.80
2019-05-28T22:23:41.758Z,11.70
2019-05-28T22:27:46.059Z,11.70
2019-05-28T22:31:50.267Z,11.60
2019-05-28T22:35:54.584Z,11.50
2019-05-28T22:39:59.313Z,11.40
2019-05-28T22:44:03.735Z,11.30
2019-05-28T22:48:15.646Z,11.30
2019-05-28T22:52:13.846Z,11.20
2019-05-28T22:56:18.191Z,11.10
2019-05-28T23:00:22.830Z,11.00
2019-05-28T23:04:27.063Z,10.90
2019-05-28T23:08:31.304Z,10.80
2019-05-28T23:12:35.516Z,10.70
2019-05-28T23:16:39.731Z,10.60
2019-05-28T23:24:48.588Z,10.40
2019-05-28T23:28:52.798Z,10.30
2019-05-28T23:32:56.988Z,10.20
2019-05-28T23:37:01.216Z,10.10
2019-05-28T23:41:05.440Z,10.00
2019-05-28T23:45:10.354Z,9.90
2019-05-28T23:49:14.590Z,9.80
2019-05-28T23:53:18.780Z,9.70
2019-05-28T23:57:23.012Z,9.60
